.
WxDataArchive / Data Records for 2008-02-04
2008-02-03 February 2008 2008-02-05

Data Records for Monday, 04 February 2008

Time	Temp	Chill	HIndex	Humid	Dewpt	 Wind 	HiWind	WindDir	Rain 	Barom 
-----	----	-----	------	-----	-----	------	------	-------	-----	----- 
00:00	30.9	23.5	30.9	95	29.6	8	14	90	0.00	30.009 
00:05	31.0	25.0	31.0	95	29.7	6	11	112	0.00	30.001 
00:10	31.0	24.3	31.0	95	29.7	7	13	90	0.00	29.997 
00:15	31.2	24.5	31.2	95	29.9	7	12	112	0.00	29.996 
00:20	31.2	26.1	31.2	95	29.9	5	11	112	0.00	30.000 
00:25	31.3	26.3	31.3	95	30.0	5	10	112	0.00	30.001 
00:30	31.3	27.3	31.3	95	30.0	4	10	90	0.00	30.001 
00:35	31.3	25.4	31.3	95	30.0	6	13	112	0.00	29.999 
00:40	31.3	26.3	31.3	95	30.0	5	9	90	0.00	30.003 
00:45	31.5	31.5	31.5	95	30.2	3	6	112	0.00	30.012 
00:50	31.5	31.5	31.5	95	30.2	2	6	112	0.00	30.009 
00:55	31.6	31.6	31.6	95	30.3	0	0	---	0.00	30.010 
01:00	31.6	31.6	31.6	95	30.3	0	0	---	0.00	30.007 
01:05	31.6	31.6	31.6	95	30.3	0	0	---	0.00	30.002 
01:10	31.5	31.5	31.5	95	30.2	0	0	---	0.00	30.002 
01:15	31.5	31.5	31.5	95	30.2	0	0	---	0.00	29.999 
01:20	31.5	31.5	31.5	95	30.2	0	0	---	0.00	29.998 
01:25	31.5	31.5	31.5	95	30.2	0	0	---	0.00	29.995 
01:30	31.6	31.6	31.6	95	30.3	0	0	---	0.00	29.997 
01:35	31.6	31.6	31.6	95	30.3	0	0	---	0.00	29.994 
01:40	31.6	31.6	31.6	95	30.3	0	0	---	0.00	29.993 
01:45	31.6	31.6	31.6	95	30.3	0	0	---	0.00	29.985 
01:50	31.6	31.6	31.6	96	30.6	0	0	---	0.00	29.991 
01:55	31.6	31.6	31.6	96	30.6	0	0	---	0.00	29.989 
02:00	31.6	31.6	31.6	96	30.6	0	0	---	0.00	29.985 
02:05	31.6	31.6	31.6	96	30.6	0	0	---	0.00	29.986 
02:10	31.6	31.6	31.6	96	30.6	0	0	---	0.00	29.984 
02:15	31.6	31.6	31.6	96	30.6	0	0	---	0.00	29.983 
02:20	31.6	31.6	31.6	96	30.6	0	0	---	0.00	29.981 
02:25	31.6	31.6	31.6	96	30.6	0	0	---	0.00	29.982 
02:30	31.6	31.6	31.6	96	30.6	0	0	---	0.00	29.983 
02:35	31.6	31.6	31.6	96	30.6	0	0	---	0.00	29.984 
02:40	31.8	31.8	31.8	96	30.8	0	0	---	0.00	29.983 
02:45	31.8	31.8	31.8	96	30.8	0	0	---	0.00	29.983 
02:50	31.8	31.8	31.8	96	30.8	0	0	---	0.00	29.984 
02:55	31.8	31.8	31.8	96	30.8	0	0	---	0.00	29.986 
03:00	31.8	31.8	31.8	96	30.8	0	0	---	0.00	29.984 
03:05	31.8	31.8	31.8	96	30.8	0	0	---	0.00	29.982 
03:10	31.8	31.8	31.8	96	30.8	0	0	---	0.00	29.982 
03:15	31.8	31.8	31.8	96	30.8	0	0	---	0.00	29.982 
03:20	31.8	31.8	31.8	96	30.8	0	0	---	0.00	29.982 
03:25	31.8	31.8	31.8	96	30.8	0	0	---	0.00	29.978 
03:30	31.9	31.9	31.9	96	30.9	0	0	---	0.00	29.980 
03:35	31.9	31.9	31.9	96	30.9	0	0	---	0.00	29.974 
03:40	31.9	31.9	31.9	96	30.9	0	0	---	0.00	29.974 
03:45	31.9	31.9	31.9	96	30.9	0	0	---	0.00	29.974 
03:50	31.9	31.9	31.9	96	30.9	0	0	---	0.00	29.976 
03:55	31.9	31.9	31.9	96	30.9	0	0	---	0.00	29.978 
04:00	31.9	31.9	31.9	96	30.9	0	0	---	0.00	29.976 
04:05	31.9	31.9	31.9	96	30.9	0	0	---	0.00	29.970 
04:10	31.9	31.9	31.9	96	30.9	0	0	---	0.00	29.970 
04:15	31.9	31.9	31.9	96	30.9	0	0	---	0.00	29.969 
04:20	31.9	31.9	31.9	96	30.9	0	0	---	0.00	29.968 
04:25	32.1	32.1	32.1	96	31.1	0	0	---	0.00	29.968 
04:30	32.1	32.1	32.1	96	31.1	0	0	---	0.00	29.970 
04:35	32.1	32.1	32.1	96	31.1	0	0	---	0.00	29.969 
04:40	32.1	32.1	32.1	96	31.1	0	0	---	0.00	29.968 
04:45	32.1	32.1	32.1	96	31.1	0	0	---	0.00	29.969 
04:50	32.1	32.1	32.1	96	31.1	0	0	---	0.00	29.969 
04:55	32.1	32.1	32.1	96	31.1	0	0	---	0.00	29.969 
05:00	32.1	32.1	32.1	96	31.1	0	0	---	0.00	29.974 
05:05	32.1	32.1	32.1	96	31.1	0	0	---	0.00	29.973 
05:10	32.1	32.1	32.1	96	31.1	0	0	---	0.00	29.969 
05:15	32.2	32.2	32.2	96	31.2	0	0	---	0.00	29.968 
05:20	32.2	32.2	32.2	96	31.2	0	0	---	0.00	29.967 
05:25	32.2	32.2	32.2	96	31.2	0	0	---	0.00	29.965 
05:30	32.2	32.2	32.2	96	31.2	0	0	---	0.00	29.966 
05:35	32.2	32.2	32.2	96	31.2	0	0	---	0.00	29.964 
05:40	32.2	32.2	32.2	96	31.2	0	0	---	0.00	29.966 
05:45	32.2	32.2	32.2	96	31.2	0	0	---	0.00	29.969 
05:50	32.2	32.2	32.2	96	31.2	0	0	---	0.00	29.970 
05:55	32.2	32.2	32.2	96	31.2	0	0	---	0.00	29.968 
06:00	32.2	32.2	32.2	96	31.2	0	0	---	0.00	29.969 
06:05	32.2	32.2	32.2	96	31.2	0	0	---	0.00	29.968 
06:10	32.2	32.2	32.2	96	31.2	0	0	---	0.00	29.968 
06:15	32.2	32.2	32.2	96	31.2	0	0	---	0.00	29.969 
06:20	32.2	32.2	32.2	96	31.2	0	0	---	0.00	29.969 
06:25	32.2	32.2	32.2	96	31.2	0	0	---	0.00	29.968 
06:30	32.2	32.2	32.2	96	31.2	0	0	---	0.00	29.968 
06:35	32.2	32.2	32.2	96	31.2	0	0	---	0.00	29.969 
06:40	32.2	32.2	32.2	96	31.2	0	0	---	0.00	29.976 
06:45	32.2	32.2	32.2	97	31.4	0	0	---	0.00	29.975 
06:50	32.2	32.2	32.2	97	31.4	0	0	---	0.00	29.978 
06:55	32.2	32.2	32.2	96	31.2	0	0	---	0.00	29.980 
07:00	32.2	32.2	32.2	96	31.2	0	0	---	0.00	29.973 
07:05	32.2	32.2	32.2	97	31.4	0	0	---	0.00	29.976 
07:10	32.2	32.2	32.2	97	31.4	0	0	---	0.00	29.970 
07:15	32.2	32.2	32.2	97	31.4	0	0	---	0.00	29.969 
07:20	32.2	32.2	32.2	97	31.4	0	0	---	0.00	29.976 
07:25	32.2	32.2	32.2	97	31.4	0	0	---	0.00	29.980 
07:30	32.2	32.2	32.2	97	31.4	0	0	---	0.00	29.981 
07:35	32.2	32.2	32.2	97	31.4	0	0	---	0.00	29.982 
07:40	32.2	32.2	32.2	97	31.4	0	0	---	0.00	29.982 
07:45	32.2	32.2	32.2	97	31.4	0	0	---	0.00	29.983 
07:50	32.2	32.2	32.2	97	31.4	0	0	---	0.00	29.983 
07:55	32.2	32.2	32.2	97	31.4	0	0	---	0.00	29.978 
08:00	32.2	32.2	32.2	97	31.4	0	0	---	0.00	29.970 
08:05	32.2	32.2	32.2	97	31.4	0	0	---	0.00	29.973 
08:10	32.2	32.2	32.2	97	31.4	0	0	---	0.00	29.974 
08:15	32.2	32.2	32.2	97	31.4	0	0	---	0.00	29.974 
08:20	32.2	32.2	32.2	97	31.4	0	0	---	0.00	29.969 
08:25	32.2	32.2	32.2	97	31.4	0	0	---	0.00	29.977 
08:30	32.2	32.2	32.2	97	31.4	0	0	---	0.00	29.977 
08:35	32.2	32.2	32.2	97	31.4	0	0	---	0.00	29.975 
08:40	32.2	32.2	32.2	97	31.4	0	0	---	0.00	29.977 
08:45	32.4	32.4	32.4	97	31.6	0	0	---	0.00	29.981 
08:50	32.4	32.4	32.4	97	31.6	0	0	---	0.00	29.981 
08:55	32.4	32.4	32.4	97	31.6	0	0	---	0.00	29.972 
09:00	32.4	32.4	32.4	97	31.6	0	0	---	0.00	29.977 
09:05	32.4	32.4	32.4	97	31.6	0	0	---	0.00	29.973 
09:10	32.4	32.4	32.4	97	31.6	0	0	---	0.00	29.981 
09:15	32.5	32.5	32.5	97	31.7	0	0	---	0.00	29.980 
09:20	32.5	32.5	32.5	97	31.7	0	0	---	0.00	29.982 
09:25	32.5	32.5	32.5	97	31.7	0	0	---	0.00	29.983 
09:30	32.5	32.5	32.5	97	31.7	0	0	---	0.00	29.984 
09:35	32.5	32.5	32.5	97	31.7	0	0	---	0.00	29.981 
09:40	32.5	32.5	32.5	97	31.7	1	4	112	0.00	29.972 
09:45	32.7	32.7	32.7	97	31.9	3	5	90	0.00	29.966 
09:50	32.7	32.7	32.7	97	31.9	2	4	112	0.00	29.966 
09:55	32.8	32.8	32.8	97	32.0	2	5	90	0.00	29.966 
10:00	32.8	32.8	32.8	97	32.0	3	6	90	0.00	29.970 
10:05	32.8	32.8	32.8	97	32.0	2	4	112	0.00	29.976 
10:10	32.8	32.8	32.8	97	32.0	2	5	112	0.00	29.968 
10:15	32.8	32.8	32.8	97	32.0	3	6	90	0.00	29.970 
10:20	32.8	32.8	32.8	97	32.0	3	7	90	0.00	29.968 
10:25	32.8	32.8	32.8	97	32.0	1	4	90	0.00	29.969 
10:30	32.8	32.8	32.8	97	32.0	3	5	112	0.00	29.968 
10:35	32.8	32.8	32.8	97	32.0	3	6	112	0.00	29.967 
10:40	32.8	29.0	32.8	97	32.0	4	9	112	0.00	29.964 
10:45	32.9	29.1	32.9	97	32.1	4	6	90	0.00	29.960 
10:50	32.9	32.9	32.9	97	32.1	3	6	112	0.00	29.955 
10:55	32.9	32.9	32.9	97	32.1	3	7	112	0.00	29.957 
11:00	33.1	33.1	33.1	97	32.3	3	5	112	0.00	29.955 
11:05	33.1	33.1	33.1	97	32.3	3	6	112	0.00	29.951 
11:10	33.2	33.2	33.2	97	32.4	3	6	112	0.00	29.949 
11:15	33.2	29.5	33.2	97	32.4	4	8	90	0.00	29.949 
11:20	33.2	33.2	33.2	97	32.4	3	8	112	0.00	29.947 
11:25	33.2	33.2	33.2	97	32.4	2	6	112	0.00	29.949 
11:30	33.4	33.4	33.4	97	32.6	3	5	90	0.00	29.947 
11:35	33.4	33.4	33.4	97	32.6	3	5	112	0.00	29.940 
11:40	33.4	33.4	33.4	97	32.6	3	9	112	0.00	29.935 
11:45	33.5	33.5	33.5	97	32.7	3	5	112	0.00	29.936 
11:50	33.5	29.8	33.5	97	32.7	4	7	112	0.00	29.937 
11:55	33.5	33.5	33.5	97	32.7	3	5	112	0.00	29.934 
12:00	33.7	33.7	33.7	97	32.9	2	4	90	0.00	29.933 
12:05	33.8	33.8	33.8	97	33.0	2	4	90	0.00	29.929 
12:10	33.8	33.8	33.8	97	33.0	2	7	112	0.00	29.923 
12:15	33.8	33.8	33.8	97	33.0	3	7	112	0.00	29.919 
12:20	33.8	33.8	33.8	97	33.0	3	7	112	0.00	29.918 
12:25	33.8	33.8	33.8	97	33.0	2	5	112	0.00	29.920 
12:30	33.8	33.8	33.8	97	33.0	3	6	112	0.00	29.916 
12:35	34.0	34.0	34.0	97	33.2	3	6	90	0.00	29.909 
12:40	34.0	34.0	34.0	97	33.2	3	5	112	0.00	29.903 
12:45	34.1	34.1	34.1	97	33.3	2	5	112	0.00	29.897 
12:50	34.1	34.1	34.1	97	33.3	3	6	112	0.00	29.888 
12:55	34.1	34.1	34.1	97	33.3	3	7	112	0.00	29.885 
13:00	34.3	34.3	34.3	97	33.5	3	5	135	0.00	29.885 
13:05	34.3	34.3	34.3	97	33.5	3	6	90	0.01	29.883 
13:10	34.3	34.3	34.3	97	33.5	3	6	112	0.00	29.870 
13:15	34.4	34.4	34.4	97	33.6	3	7	112	0.00	29.863 
13:20	34.4	30.8	34.4	97	33.6	4	7	112	0.00	29.863 
13:25	34.6	31.1	34.6	97	33.8	4	9	112	0.00	29.859 
13:30	34.7	34.7	34.7	97	33.9	2	4	135	0.01	29.860 
13:35	34.7	34.7	34.7	97	33.9	2	6	112	0.00	29.854 
13:40	34.7	34.7	34.7	97	33.9	2	4	112	0.00	29.849 
13:45	34.6	34.6	34.6	97	33.8	3	5	112	0.00	29.841 
13:50	34.7	34.7	34.7	97	33.9	3	6	112	0.01	29.837 
13:55	34.7	34.7	34.7	97	33.9	3	6	90	0.00	29.836 
14:00	34.9	34.9	34.9	97	34.1	2	5	90	0.01	29.837 
14:05	35.0	35.0	35.0	97	34.2	1	4	112	0.00	29.836 
14:10	35.2	35.2	35.2	97	34.4	2	5	112	0.01	29.832 
14:15	35.0	35.0	35.0	97	34.2	3	5	90	0.00	29.825 
14:20	35.2	35.2	35.2	97	34.4	2	4	90	0.01	29.825 
14:25	35.2	35.2	35.2	97	34.4	2	4	90	0.00	29.826 
14:30	35.3	35.3	35.3	97	34.5	2	4	90	0.01	29.824 
14:35	35.3	35.3	35.3	97	34.5	3	5	112	0.00	29.824 
14:40	35.5	35.5	35.5	97	34.7	2	4	90	0.01	29.822 
14:45	35.5	35.5	35.5	97	34.7	1	4	90	0.01	29.821 
14:50	35.6	35.6	35.6	98	35.1	1	5	112	0.01	29.821 
14:55	35.6	35.6	35.6	98	35.1	1	3	112	0.01	29.820 
15:00	35.8	35.8	35.8	98	35.3	1	3	112	0.01	29.818 
15:05	35.6	35.6	35.6	98	35.1	2	5	112	0.00	29.808 
15:10	35.8	35.8	35.8	98	35.3	1	3	90	0.01	29.806 
15:15	35.8	35.8	35.8	98	35.3	2	4	90	0.01	29.804 
15:20	35.8	35.8	35.8	98	35.3	2	6	112	0.01	29.801 
15:25	35.8	35.8	35.8	98	35.3	2	4	135	0.01	29.800 
15:30	35.9	35.9	35.9	98	35.4	2	3	112	0.05	29.793 
15:35	36.0	36.0	36.0	98	35.5	2	5	112	0.00	29.792 
15:40	36.3	36.3	36.3	98	35.8	2	5	112	0.00	29.791 
15:45	36.5	36.5	36.5	98	36.0	2	6	112	0.01	29.795 
15:50	36.5	36.5	36.5	98	36.0	2	5	112	0.00	29.790 
15:55	36.5	36.5	36.5	98	36.0	1	3	112	0.01	29.795 
16:00	36.5	36.5	36.5	98	36.0	1	4	90	0.00	29.801 
16:05	36.5	36.5	36.5	98	36.0	1	4	90	0.00	29.798 
16:10	36.5	36.5	36.5	98	36.0	1	3	90	0.01	29.797 
16:15	36.5	36.5	36.5	98	36.0	1	3	90	0.00	29.793 
16:20	36.5	36.5	36.5	98	36.0	1	3	90	0.00	29.796 
16:25	36.6	36.6	36.6	98	36.1	1	4	90	0.01	29.800 
16:30	36.6	36.6	36.6	98	36.1	1	3	90	0.00	29.794 
16:35	36.6	36.6	36.6	98	36.1	2	4	112	0.00	29.797 
16:40	36.6	36.6	36.6	98	36.1	1	3	112	0.00	29.791 
16:45	36.6	36.6	36.6	98	36.1	2	3	112	0.01	29.789 
16:50	36.5	36.5	36.5	98	36.0	1	3	90	0.00	29.788 
16:55	36.5	36.5	36.5	98	36.0	1	3	90	0.00	29.787 
17:00	36.5	36.5	36.5	98	36.0	1	3	112	0.00	29.782 
17:05	36.5	36.5	36.5	98	36.0	1	3	112	0.00	29.780 
17:10	36.6	36.6	36.6	98	36.1	0	2	112	0.00	29.778 
17:15	36.6	36.6	36.6	98	36.1	1	3	112	0.01	29.773 
17:20	36.8	36.8	36.8	98	36.3	0	2	112	0.00	29.772 
17:25	36.8	36.8	36.8	98	36.3	1	3	112	0.00	29.771 
17:30	36.9	36.9	36.9	98	36.4	1	2	112	0.00	29.770 
17:35	37.0	37.0	37.0	98	36.5	0	1	112	0.00	29.771 
17:40	37.0	37.0	37.0	98	36.5	0	2	112	0.01	29.770 
17:45	37.2	37.2	37.2	98	36.7	0	1	112	0.00	29.770 
17:50	37.2	37.2	37.2	98	36.7	0	1	112	0.00	29.771 
17:55	37.0	37.0	37.0	98	36.5	0	0	---	0.00	29.772 
18:00	36.9	36.9	36.9	98	36.4	0	0	---	0.00	29.774 
18:05	36.8	36.8	36.8	98	36.3	0	0	---	0.00	29.774 
18:10	36.5	36.5	36.5	98	36.0	0	1	112	0.01	29.773 
18:15	36.5	36.5	36.5	98	36.0	0	2	112	0.00	29.772 
18:20	36.5	36.5	36.5	98	36.0	0	2	112	0.00	29.771 
18:25	36.5	36.5	36.5	98	36.0	0	0	---	0.00	29.772 
18:30	36.6	36.6	36.6	98	36.1	0	0	---	0.00	29.773 
18:35	36.6	36.6	36.6	98	36.1	0	1	112	0.00	29.772 
18:40	36.5	36.5	36.5	98	36.0	0	0	---	0.00	29.772 
18:45	36.6	36.6	36.6	98	36.1	0	0	---	0.01	29.770 
18:50	37.0	37.0	37.0	98	36.5	0	0	---	0.00	29.771 
18:55	37.2	37.2	37.2	98	36.7	0	0	---	0.00	29.769 
19:00	37.6	37.6	37.6	98	37.1	0	0	---	0.00	29.767 
19:05	38.6	38.6	38.6	98	38.1	0	1	112	0.00	29.763 
19:10	40.8	40.8	40.8	98	40.3	0	2	112	0.00	29.762 
19:15	42.9	42.9	42.9	99	42.6	1	3	135	0.00	29.759 
19:20	44.1	44.1	44.1	99	43.8	0	1	112	0.00	29.755 
19:25	44.8	44.8	44.8	99	44.5	1	3	112	0.01	29.752 
19:30	45.7	45.7	45.7	99	45.4	1	4	90	0.00	29.749 
19:35	45.8	45.8	45.8	99	45.5	1	3	135	0.00	29.749 
19:40	46.1	46.1	46.1	99	45.8	1	3	45	0.00	29.750 
19:45	46.5	46.5	46.5	99	46.2	2	6	112	0.01	29.751 
19:50	46.7	46.7	46.7	99	46.4	2	4	68	0.00	29.751 
19:55	46.5	46.5	46.5	99	46.2	1	2	68	0.00	29.752 
20:00	46.8	46.8	46.8	99	46.5	1	4	68	0.00	29.751 
20:05	46.7	46.7	46.7	99	46.4	0	2	112	0.01	29.750 
20:10	47.0	47.0	47.0	99	46.7	1	4	68	0.00	29.747 
20:15	47.0	47.0	47.0	99	46.7	1	3	68	0.00	29.746 
20:20	47.3	47.3	47.3	99	47.0	1	4	90	0.01	29.746 
20:25	47.3	47.3	47.3	99	47.0	1	3	45	0.00	29.746 
20:30	47.3	47.3	47.3	99	47.0	1	4	90	0.00	29.746 
20:35	47.3	47.3	47.3	99	47.0	1	3	68	0.00	29.747 
20:40	47.3	47.3	47.3	99	47.0	1	3	180	0.01	29.748 
20:45	47.4	47.4	47.4	99	47.1	1	3	0	0.00	29.755 
20:50	47.6	47.6	47.6	99	47.3	1	3	22	0.00	29.751 
20:55	47.6	47.6	47.6	99	47.3	1	3	0	0.00	29.750 
21:00	47.7	47.7	47.7	99	47.4	1	4	248	0.00	29.753 
21:05	47.7	47.7	47.7	99	47.4	0	2	248	0.01	29.758 
21:10	47.7	47.7	47.7	99	47.4	0	3	225	0.00	29.756 
21:15	48.0	48.0	48.0	99	47.7	1	3	135	0.00	29.746 
21:20	47.9	47.9	47.9	99	47.6	1	3	135	0.00	29.744 
21:25	47.9	47.9	47.9	99	47.6	1	3	248	0.00	29.743 
21:30	48.0	48.0	48.0	99	47.7	0	4	248	0.00	29.741 
21:35	47.7	47.7	47.7	99	47.4	0	2	112	0.00	29.741 
21:40	47.7	47.7	47.7	99	47.4	0	2	248	0.00	29.737 
21:45	47.7	47.7	47.7	99	47.4	0	1	45	0.01	29.737 
21:50	47.6	47.6	47.6	99	47.3	1	2	45	0.00	29.730 
21:55	47.7	47.7	47.7	99	47.4	0	2	45	0.00	29.730 
22:00	47.6	47.6	47.6	99	47.3	0	2	45	0.00	29.730 
22:05	47.4	47.4	47.4	99	47.1	0	2	45	0.00	29.730 
22:10	47.6	47.6	47.6	99	47.3	1	2	45	0.00	29.731 
22:15	47.7	47.7	47.7	99	47.4	0	2	45	0.00	29.729 
22:20	47.6	47.6	47.6	99	47.3	0	2	45	0.00	29.729 
22:25	47.6	47.6	47.6	99	47.3	0	1	45	0.00	29.728 
22:30	47.4	47.4	47.4	99	47.1	0	1	45	0.00	29.726 
22:35	47.6	47.6	47.6	99	47.3	1	2	45	0.00	29.722 
22:40	47.7	47.7	47.7	99	47.4	0	2	45	0.00	29.720 
22:45	47.7	47.7	47.7	99	47.4	1	2	45	0.01	29.714 
22:50	48.0	48.0	48.0	99	47.7	1	2	45	0.00	29.713 
22:55	48.0	48.0	48.0	99	47.7	1	2	45	0.00	29.714 
23:00	48.3	48.3	48.3	99	48.0	1	2	45	0.00	29.715 
23:05	48.8	48.8	48.8	99	48.5	1	3	225	0.00	29.717 
23:10	49.1	49.1	49.1	99	48.8	1	3	248	0.00	29.724 
23:15	49.1	49.1	49.1	99	48.8	0	4	225	0.00	29.722 
23:20	49.1	49.1	49.1	99	48.8	1	2	135	0.00	29.724 
23:25	49.4	49.4	49.4	99	49.1	1	3	90	0.00	29.721 
23:30	49.8	49.8	49.8	99	49.5	1	4	248	0.00	29.722 
23:35	50.1	50.1	50.1	99	49.8	1	3	225	0.00	29.714 
23:40	49.6	49.6	49.6	99	49.3	0	2	68	0.00	29.710 
23:45	50.2	50.2	50.2	99	49.9	1	3	68	0.00	29.707 
23:50	50.4	50.4	50.4	99	50.1	1	3	45	0.00	29.706 
23:55	50.4	50.4	50.4	99	50.1	0	2	22	0.00	29.704 

CoCoRaHS
IN-AL-39
A2 Web Hosting
Creative Commons License
GoDaddy
Look for:

loaded 2017-10-20 19:37:07 • last modified 2010-11-18 10:43:29
Privacy PolicyDisclaimer
• wx.awcolley.com is powered by PmWiki v.2002016 •
• all content (unless otherwise noted) © 2017 A W Colley